Time;durP1;ratioP1;P1;durP2;ratioP2;P2;SDS_P1;SDS_P2;PMS_P1;PMS_P2;Temp;Humidity;BMP_temperature;BMP_pressure;BME280_temperature;BME280_humidity;BME280_pressure;Samples;Min_cycle;Max_cycle;Signal;HPM_P1;HPM_P2
2023/07/08 00:01:59;;;;;;;9.55;3.97;;;;;;;19.39;100.00;100875.94;5528705;32;35133;-61
2023/07/08 00:05:02;;;;;;;9.50;3.78;;;;;;;19.31;100.00;100873.50;5528870;32;34387;-61
2023/07/08 00:08:05;;;;;;;9.02;4.25;;;;;;;19.27;100.00;100868.72;5527945;32;34561;-61
2023/07/08 00:11:13;;;;;;;7.25;3.62;;;;;;;19.19;100.00;100877.03;5515408;32;34019;-61
2023/07/08 00:14:15;;;;;;;8.75;4.00;;;;;;;19.11;100.00;100875.44;5528854;32;33402;-61
2023/07/08 00:17:18;;;;;;;5.65;3.45;;;;;;;19.03;100.00;100881.00;5528764;32;32771;-61
2023/07/08 00:20:30;;;;;;;6.12;3.78;;;;;;;18.95;100.00;100883.94;5514330;32;33844;-61
2023/07/08 00:23:35;;;;;;;6.55;3.60;;;;;;;18.92;100.00;100884.37;5529069;32;33853;-61
2023/07/08 00:26:38;;;;;;;7.45;3.67;;;;;;;18.91;100.00;100885.41;5528726;32;33908;-61
2023/07/08 00:29:42;;;;;;;8.80;3.90;;;;;;;18.81;100.00;100885.00;5528771;32;33616;-61
2023/07/08 00:32:45;;;;;;;4.65;3.45;;;;;;;18.76;100.00;100879.41;5528686;32;33894;-61
2023/07/08 00:35:48;;;;;;;8.45;3.85;;;;;;;18.72;100.00;100873.63;5515149;32;33865;-61
2023/07/08 00:38:51;;;;;;;6.90;3.95;;;;;;;18.96;100.00;100878.34;5528193;32;33659;-61
2023/07/08 00:41:56;;;;;;;8.60;3.87;;;;;;;19.10;100.00;100876.47;5528524;32;33661;-60
2023/07/08 00:44:59;;;;;;;5.12;3.62;;;;;;;19.09;100.00;100872.94;5514886;32;33782;-61
2023/07/08 00:48:19;;;;;;;7.50;3.67;;;;;;;18.98;100.00;100872.75;5528465;32;34570;-61
2023/07/08 00:51:22;;;;;;;7.12;3.83;;;;;;;19.13;100.00;100881.41;5528486;32;34220;-60
2023/07/08 00:54:25;;;;;;;7.85;4.10;;;;;;;18.86;100.00;100877.97;5527685;32;33627;-61
2023/07/08 00:57:32;;;;;;;7.47;3.80;;;;;;;18.79;100.00;100879.81;5528361;32;34553;-61
2023/07/08 01:00:35;;;;;;;6.90;3.95;;;;;;;18.72;100.00;100872.81;5528435;32;34169;-61
2023/07/08 01:03:49;;;;;;;6.03;3.70;;;;;;;18.45;100.00;100880.00;5527542;32;34579;-60
2023/07/08 01:06:59;;;;;;;5.75;3.83;;;;;;;18.25;100.00;100872.78;5515059;32;34500;-61
2023/07/08 01:10:06;;;;;;;6.93;3.70;;;;;;;18.12;100.00;100872.78;5527515;32;33569;-61
2023/07/08 01:13:14;;;;;;;12.95;3.75;;;;;;;18.00;100.00;100866.38;5514652;32;34983;-60
2023/07/08 01:16:17;;;;;;;7.32;3.90;;;;;;;17.91;100.00;100877.50;5528353;32;34383;-61
2023/07/08 01:19:32;;;;;;;7.32;3.70;;;;;;;17.79;100.00;100875.41;5528080;32;33957;-61
2023/07/08 01:22:36;;;;;;;9.23;4.30;;;;;;;17.69;100.00;100874.13;5528116;32;33710;-61
2023/07/08 01:25:42;;;;;;;7.78;3.83;;;;;;;17.74;100.00;100872.50;5528153;32;33855;-61
2023/07/08 01:28:45;;;;;;;5.80;3.87;;;;;;;17.89;100.00;100879.56;5528116;32;35205;-61
2023/07/08 01:31:49;;;;;;;7.40;3.60;;;;;;;17.91;100.00;100874.81;5527137;32;33505;-60
2023/07/08 01:34:59;;;;;;;6.32;3.62;;;;;;;17.99;100.00;100883.50;5528049;32;33725;-60
2023/07/08 01:38:08;;;;;;;8.00;3.80;;;;;;;17.90;100.00;100883.91;5527949;32;33867;-60
2023/07/08 01:41:13;;;;;;;6.50;3.62;;;;;;;17.87;100.00;100878.91;5528115;32;34862;-60
2023/07/08 01:44:34;;;;;;;7.47;3.62;;;;;;;17.65;100.00;100881.78;5527617;32;33938;-61
2023/07/08 01:47:37;;;;;;;6.80;3.95;;;;;;;17.54;100.00;100876.94;5527759;32;33737;-61
2023/07/08 01:50:46;;;;;;;7.40;3.90;;;;;;;17.53;100.00;100877.13;5527064;32;34617;-61
2023/07/08 01:53:49;;;;;;;6.10;4.13;;;;;;;17.44;100.00;100867.59;5527610;32;35596;-61
2023/07/08 01:56:57;;;;;;;6.90;4.07;;;;;;;17.38;100.00;100877.28;5527500;32;35278;-60
2023/07/08 02:00:00;;;;;;;6.68;4.00;;;;;;;17.27;100.00;100872.50;5527542;32;34035;-61
2023/07/08 02:03:03;;;;;;;8.65;4.10;;;;;;;17.19;100.00;100865.44;5527475;32;33903;-60
2023/07/08 02:06:08;;;;;;;7.68;3.83;;;;;;;17.10;100.00;100863.97;5527474;32;33390;-60
2023/07/08 02:09:11;;;;;;;7.70;3.72;;;;;;;17.05;100.00;100858.38;5527457;32;34129;-60
2023/07/08 02:12:15;;;;;;;9.70;4.05;;;;;;;17.11;100.00;100862.94;5527397;32;33204;-60
2023/07/08 02:15:18;;;;;;;8.35;3.53;;;;;;;17.09;100.00;100867.66;5527237;32;34373;-60
2023/07/08 02:18:23;;;;;;;7.03;3.80;;;;;;;17.09;100.00;100867.66;5527540;32;33299;-60
2023/07/08 02:21:26;;;;;;;5.53;3.60;;;;;;;17.16;100.00;100870.38;5526171;32;34051;-60
2023/07/08 02:24:29;;;;;;;8.73;3.90;;;;;;;17.17;100.00;100874.72;5527149;32;34040;-60
2023/07/08 02:27:32;;;;;;;7.43;4.18;;;;;;;17.23;100.00;100873.94;5527049;32;35097;-61
2023/07/08 02:30:36;;;;;;;6.07;3.85;;;;;;;17.05;100.00;100873.63;5526909;32;33804;-61
2023/07/08 02:33:40;;;;;;;6.18;3.75;;;;;;;16.91;100.00;100870.87;5527095;32;33777;-60
2023/07/08 02:36:43;;;;;;;6.95;3.75;;;;;;;16.84;100.00;100877.22;5526854;32;33627;-60
2023/07/08 02:39:47;;;;;;;6.65;3.47;;;;;;;16.81;100.00;100878.44;5526814;32;34565;-61
2023/07/08 02:42:50;;;;;;;6.15;3.35;;;;;;;16.80;100.00;100881.28;5513716;32;32643;-61
2023/07/08 02:45:53;;;;;;;7.97;3.65;;;;;;;16.73;100.00;100875.06;5529407;32;34061;-61
2023/07/08 02:48:56;;;;;;;7.25;3.90;;;;;;;16.89;100.00;100882.81;5529436;32;34489;-61
2023/07/08 02:51:59;;;;;;;8.32;3.97;;;;;;;16.91;100.00;100886.94;5529357;32;34594;-61
2023/07/08 02:55:03;;;;;;;7.03;3.53;;;;;;;16.82;100.00;100881.94;5529746;32;35003;-61
2023/07/08 02:58:08;;;;;;;10.95;4.00;;;;;;;16.67;100.00;100882.03;5528552;32;33876;-61
2023/07/08 03:01:11;;;;;;;9.18;3.72;;;;;;;16.61;100.00;100882.81;5529314;32;33875;-60
2023/07/08 03:04:14;;;;;;;7.90;4.10;;;;;;;16.47;100.00;100875.66;5529472;32;33945;-60
2023/07/08 03:07:19;;;;;;;5.55;3.70;;;;;;;16.49;100.00;100890.53;5529282;32;32721;-61
2023/07/08 03:10:22;;;;;;;8.70;3.90;;;;;;;16.46;100.00;100896.25;5515787;32;34490;-61
2023/07/08 03:13:26;;;;;;;6.18;3.53;;;;;;;16.59;100.00;100892.06;5529416;32;33573;-61
2023/07/08 03:16:30;;;;;;;6.18;3.95;;;;;;;16.66;100.00;100898.31;5529344;32;33199;-61
2023/07/08 03:19:33;;;;;;;6.62;3.80;;;;;;;16.66;100.00;100892.94;5515755;32;33902;-61
2023/07/08 03:22:37;;;;;;;8.35;4.00;;;;;;;16.82;100.00;100895.34;5529018;32;34858;-61
2023/07/08 03:25:41;;;;;;;7.37;3.90;;;;;;;16.69;100.00;100901.44;5515778;32;33706;-61
2023/07/08 03:28:45;;;;;;;7.55;3.62;;;;;;;16.68;100.00;100906.97;5529118;32;33839;-61
2023/07/08 03:31:51;;;;;;;5.15;3.50;;;;;;;16.71;100.00;100904.72;5529546;32;32485;-61
2023/07/08 03:34:54;;;;;;;7.18;3.50;;;;;;;16.84;100.00;100902.16;5529095;32;34337;-61
2023/07/08 03:37:57;;;;;;;7.90;3.62;;;;;;;16.74;100.00;100903.53;5528994;32;34529;-61
2023/07/08 03:41:04;;;;;;;6.37;3.70;;;;;;;16.65;100.00;100908.22;5529082;32;34636;-61
2023/07/08 03:44:07;;;;;;;5.97;3.72;;;;;;;16.64;100.00;100909.22;5529287;32;33817;-61
2023/07/08 03:47:10;;;;;;;7.25;3.72;;;;;;;16.69;100.00;100917.50;5528251;32;33863;-61
2023/07/08 03:50:20;;;;;;;7.25;4.03;;;;;;;16.70;100.00;100915.66;5529333;32;33644;-60
2023/07/08 03:53:24;;;;;;;6.30;3.85;;;;;;;16.65;100.00;100926.13;5528899;32;34033;-61
2023/07/08 03:56:28;;;;;;;8.98;3.83;;;;;;;16.61;100.00;100916.81;5528038;32;35236;-61
2023/07/08 03:59:31;;;;;;;5.20;3.65;;;;;;;16.60;100.00;100924.03;5528997;32;34290;-61
2023/07/08 04:02:35;;;;;;;11.30;3.67;;;;;;;16.69;100.00;100922.03;5528855;32;33525;-61
2023/07/08 04:05:40;;;;;;;10.05;3.90;;;;;;;16.69;100.00;100917.50;5528966;32;33713;-60
2023/07/08 04:08:43;;;;;;;6.72;3.62;;;;;;;16.72;100.00;100917.12;5528096;32;33702;-61
2023/07/08 04:11:46;;;;;;;4.50;3.60;;;;;;;16.72;100.00;100916.28;5528928;32;33781;-61
2023/07/08 04:14:49;;;;;;;7.95;3.62;;;;;;;16.75;100.00;100916.72;5528908;32;33672;-61
2023/07/08 04:17:55;;;;;;;7.70;3.72;;;;;;;16.82;100.00;100914.09;5529091;32;33819;-61
2023/07/08 04:20:59;;;;;;;4.75;3.58;;;;;;;16.90;100.00;100912.09;5528808;32;34313;-61
2023/07/08 04:24:05;;;;;;;5.10;3.60;;;;;;;16.98;100.00;100924.53;5527549;32;33747;-61
2023/07/08 04:27:14;;;;;;;7.30;4.07;;;;;;;17.10;100.00;100927.47;5528705;32;34442;-61
2023/07/08 04:30:20;;;;;;;;;;;;;;;17.22;100.00;100931.28;5515599;32;33589;-61
2023/07/08 04:33:23;;;;;;;6.12;3.90;;;;;;;17.33;100.00;100931.53;5529137;32;34214;-61
2023/07/08 04:36:26;;;;;;;5.80;3.83;;;;;;;17.52;100.00;100927.31;5528626;32;34600;-61
2023/07/08 04:39:30;;;;;;;7.40;3.90;;;;;;;17.70;100.00;100922.25;5514761;32;33869;-61
2023/07/08 04:42:33;;;;;;;8.25;3.87;;;;;;;17.80;100.00;100929.91;5528358;32;34439;-61
2023/07/08 04:45:41;;;;;;;9.05;4.10;;;;;;;17.73;100.00;100924.50;5528426;32;33524;-61
2023/07/08 04:48:45;;;;;;;6.35;3.60;;;;;;;17.93;100.00;100929.13;5528390;32;33836;-61
2023/07/08 04:51:49;;;;;;;4.80;3.65;;;;;;;18.00;100.00;100940.72;5528477;32;33822;-61
2023/07/08 04:54:53;;;;;;;6.53;3.60;;;;;;;18.11;100.00;100937.41;5528278;32;34303;-61
2023/07/08 04:57:55;;;;;;;6.80;3.70;;;;;;;18.29;100.00;100937.69;5527840;32;33812;-61
2023/07/08 05:00:58;;;;;;;10.60;3.90;;;;;;;18.38;100.00;100938.31;5527115;32;33785;-61
2023/07/08 05:04:04;;;;;;;6.10;3.70;;;;;;;18.48;100.00;100941.41;5528327;32;33494;-61
2023/07/08 05:07:08;;;;;;;5.90;3.70;;;;;;;18.51;100.00;100936.44;5527789;32;33253;-61
2023/07/08 05:10:11;;;;;;;7.85;3.55;;;;;;;18.59;100.00;100940.81;5528203;32;33948;-61
2023/07/08 05:13:14;;;;;;;8.63;3.40;;;;;;;18.74;100.00;100943.28;5528377;32;34404;-61
2023/07/08 05:16:17;;;;;;;6.62;3.60;;;;;;;18.94;100.00;100938.75;5527702;32;32922;-61
2023/07/08 05:19:22;;;;;;;4.45;2.85;;;;;;;19.13;100.00;100945.94;5528224;32;33906;-61
2023/07/08 05:22:26;;;;;;;4.72;3.20;;;;;;;19.19;100.00;100946.97;5527819;32;34367;-61
2023/07/08 05:25:32;;;;;;;9.30;3.72;;;;;;;19.20;100.00;100954.84;5527693;32;34723;-61
2023/07/08 05:28:35;;;;;;;6.43;3.28;;;;;;;19.14;100.00;100958.38;5514008;32;33816;-61
2023/07/08 05:31:38;;;;;;;8.70;3.78;;;;;;;19.17;100.00;100957.94;5526900;32;32508;-61
2023/07/08 05:34:49;;;;;;;8.50;3.58;;;;;;;19.26;100.00;100954.00;5528130;32;34918;-61
2023/07/08 05:37:52;;;;;;;6.78;3.55;;;;;;;19.63;100.00;100965.94;5526609;32;33621;-61
2023/07/08 05:40:58;;;;;;;8.73;3.60;;;;;;;19.82;100.00;100954.25;5546988;32;33841;-61
2023/07/08 05:44:02;;;;;;;7.40;3.42;;;;;;;19.99;100.00;100964.53;5546695;32;33998;-61
2023/07/08 05:47:05;;;;;;;6.43;3.60;;;;;;;20.13;100.00;100968.81;5533202;32;33197;-61
2023/07/08 05:50:08;;;;;;;6.53;3.40;;;;;;;20.27;100.00;100970.38;5546569;32;33614;-62
2023/07/08 05:53:11;;;;;;;6.60;3.25;;;;;;;20.55;100.00;100975.41;5533161;32;33863;-61
2023/07/08 05:56:15;;;;;;;5.62;3.10;;;;;;;20.82;96.51;100974.16;5546867;32;34712;-61
2023/07/08 05:59:17;;;;;;;6.20;2.75;;;;;;;20.61;95.25;100979.94;5533236;32;34983;-61
2023/07/08 06:02:23;;;;;;;6.37;3.20;;;;;;;20.71;94.75;100981.09;5546779;32;33610;-61
2023/07/08 06:05:26;;;;;;;6.20;3.37;;;;;;;20.69;94.83;100980.47;5546804;32;33809;-61
2023/07/08 06:08:28;;;;;;;7.85;3.30;;;;;;;20.90;94.15;100973.88;5546704;32;34308;-61
2023/07/08 06:11:33;;;;;;;7.32;3.42;;;;;;;20.97;91.15;100979.19;5535849;32;34470;-61
2023/07/08 06:14:37;;;;;;;16.25;3.60;;;;;;;20.93;92.06;100978.81;5529624;32;34459;-61
2023/07/08 06:17:40;;;;;;;11.00;3.22;;;;;;;20.87;94.87;100979.69;5513923;32;34496;-62
2023/07/08 06:20:51;;;;;;;9.52;2.87;;;;;;;21.18;91.82;100979.66;5516192;32;33627;-61
2023/07/08 06:23:54;;;;;;;8.30;3.45;;;;;;;21.17;91.07;100979.87;5529306;32;33230;-62
2023/07/08 06:26:57;;;;;;;6.87;3.40;;;;;;;21.36;91.27;100981.56;5529558;32;33969;-62
2023/07/08 06:30:01;;;;;;;7.25;3.30;;;;;;;21.81;82.39;100995.59;5529766;32;34353;-61
2023/07/08 06:33:05;;;;;;;7.12;2.95;;;;;;;22.13;79.02;100992.69;5529499;32;33947;-61
2023/07/08 06:36:08;;;;;;;7.12;3.05;;;;;;;22.03;76.96;100980.56;5541857;32;33987;-62
2023/07/08 06:39:11;;;;;;;8.75;2.80;;;;;;;22.09;78.10;100982.37;5548936;32;33549;-61
2023/07/08 06:42:14;;;;;;;5.62;2.95;;;;;;;22.35;73.89;100977.66;5535228;32;33916;-62
2023/07/08 06:45:18;;;;;;;6.85;2.97;;;;;;;22.50;70.59;100983.44;5535474;32;34894;-62
2023/07/08 06:48:22;;;;;;;6.55;2.58;;;;;;;22.54;69.92;100979.22;5535303;32;33970;-61
2023/07/08 06:51:26;;;;;;;6.20;2.97;;;;;;;22.99;64.87;100979.56;5535122;32;33779;-61
2023/07/08 06:54:29;;;;;;;6.47;3.00;;;;;;;23.10;63.15;100980.59;5548841;32;34453;-63
2023/07/08 06:57:32;;;;;;;6.95;2.90;;;;;;;22.83;61.17;100981.06;5530696;32;33152;-62
2023/07/08 07:00:35;;;;;;;6.72;2.58;;;;;;;23.08;60.48;100971.91;5537578;32;33931;-62
2023/07/08 07:03:38;;;;;;;8.70;2.62;;;;;;;23.44;57.02;100965.38;5548578;32;33307;-62
2023/07/08 07:06:41;;;;;;;6.45;2.47;;;;;;;23.41;59.35;100969.41;5534717;32;33915;-63
2023/07/08 07:09:44;;;;;;;5.40;2.60;;;;;;;23.66;55.99;100970.00;5548571;32;33973;-62
2023/07/08 07:12:47;;;;;;;4.60;2.22;;;;;;;23.79;55.27;100974.31;5548750;32;34282;-63
2023/07/08 07:15:50;;;;;;;4.55;2.70;;;;;;;23.58;51.83;100969.50;5548638;32;33724;-62
2023/07/08 07:18:54;;;;;;;4.78;2.20;;;;;;;23.74;52.75;100971.50;5534844;32;34538;-62
2023/07/08 07:21:57;;;;;;;6.45;2.65;;;;;;;24.14;49.93;100966.88;5545475;32;34956;-62
2023/07/08 07:25:00;;;;;;;10.73;2.55;;;;;;;24.30;50.50;100965.31;5548736;32;33891;-62
2023/07/08 07:28:04;;;;;;;4.62;2.60;;;;;;;24.56;49.44;100970.09;5548450;32;34602;-61
2023/07/08 07:31:07;;;;;;;5.00;2.58;;;;;;;24.83;49.09;100962.13;5548134;32;34662;-62
2023/07/08 07:34:11;;;;;;;7.12;2.70;;;;;;;24.80;50.04;100969.91;5548433;32;33861;-62
2023/07/08 07:37:16;;;;;;;4.22;2.55;;;;;;;25.24;49.42;100970.91;5534669;32;33630;-62
2023/07/08 07:40:19;;;;;;;3.67;2.50;;;;;;;25.61;47.89;100965.75;5548335;32;34500;-61
2023/07/08 07:43:22;;;;;;;5.43;2.72;;;;;;;26.63;45.36;100965.72;5548079;32;33974;-62
2023/07/08 07:46:25;;;;;;;4.82;2.87;;;;;;;26.85;45.08;100961.03;5548246;32;33718;-62
2023/07/08 07:49:28;;;;;;;3.97;2.55;;;;;;;27.85;41.63;100957.25;5534799;32;33806;-62
2023/07/08 07:52:32;;;;;;;6.20;2.70;;;;;;;26.70;43.35;100963.63;5534469;32;34035;-62
2023/07/08 07:55:35;;;;;;;4.15;2.35;;;;;;;26.33;43.70;100963.59;5548231;32;33704;-61
2023/07/08 07:58:37;;;;;;;7.18;2.30;;;;;;;27.25;41.37;100966.75;5539905;32;33702;-62
2023/07/08 08:01:42;;;;;;;5.00;2.42;;;;;;;27.14;41.25;100959.63;5528724;32;33854;-62
2023/07/08 08:04:46;;;;;;;3.67;2.20;;;;;;;28.18;39.13;100958.72;5528792;32;32681;-62
2023/07/08 08:07:49;;;;;;;4.97;2.30;;;;;;;27.76;39.86;100947.94;5528805;32;33648;-61
2023/07/08 08:10:52;;;;;;;2.83;2.12;;;;;;;29.71;36.62;100946.53;5515143;32;33656;-62
2023/07/08 08:13:55;;;;;;;5.07;2.05;;;;;;;30.16;35.42;100946.28;5528518;32;33798;-62
2023/07/08 08:16:59;;;;;;;4.22;2.15;;;;;;;30.44;34.85;100943.91;5520120;32;33450;-62
2023/07/08 08:20:03;;;;;;;4.50;2.20;;;;;;;30.93;34.31;100946.53;5517225;32;33845;-62
2023/07/08 08:23:06;;;;;;;4.87;2.33;;;;;;;29.31;37.10;100945.59;5528447;32;33888;-62
2023/07/08 08:26:09;;;;;;;4.62;2.12;;;;;;;30.44;35.77;100943.91;5528392;32;34717;-63
2023/07/08 08:29:12;;;;;;;3.47;2.00;;;;;;;29.97;36.43;100941.75;5528308;32;33082;-64
2023/07/08 08:32:15;;;;;;;6.03;2.37;;;;;;;30.48;34.87;100940.34;5528144;32;32504;-62
2023/07/08 08:35:18;;;;;;;5.30;2.30;;;;;;;31.40;34.71;100938.34;5527899;32;34464;-64
2023/07/08 08:38:21;;;;;;;4.65;2.45;;;;;;;31.02;34.39;100939.34;5514416;32;34696;-63
2023/07/08 08:41:34;;;;;;;7.95;2.42;;;;;;;32.60;32.25;100934.19;5513823;32;33689;-62
2023/07/08 08:44:44;;;;;;;5.80;2.10;;;;;;;33.10;30.64;100929.72;5527837;32;34071;-62
2023/07/08 08:47:54;;;;;;;4.93;2.17;;;;;;;33.81;29.60;100938.47;5528755;32;33992;-63
2023/07/08 08:51:05;;;;;;;7.57;2.25;;;;;;;34.12;29.86;100933.91;5547481;32;34187;-63
2023/07/08 08:54:09;;;;;;;7.20;2.28;;;;;;;32.42;31.96;100936.97;5547439;32;34491;-64
2023/07/08 08:57:49;;;;;;;8.57;2.10;;;;;;;33.66;30.04;100938.78;5547349;32;33522;-63
2023/07/08 09:00:58;;;;;;;3.80;2.20;;;;;;;34.03;28.95;100933.03;5547074;32;32623;-62
2023/07/08 09:04:17;;;;;;;5.35;2.10;;;;;;;35.77;26.97;100919.88;5546896;32;35011;-63
2023/07/08 09:07:22;;;;;;;6.25;2.30;;;;;;;34.93;28.61;100920.88;5547261;32;33701;-64
2023/07/08 09:10:51;;;;;;;5.28;2.10;;;;;;;35.42;27.12;100916.22;5533179;32;33688;-63
2023/07/08 09:13:55;;;;;;;6.03;1.98;;;;;;;33.11;30.45;100903.84;5544147;32;34372;-62
2023/07/08 09:17:23;;;;;;;4.90;2.40;;;;;;;34.04;29.19;100913.44;5527705;32;34632;-63
2023/07/08 09:20:30;;;;;;;;;;;;;;;36.23;26.33;100910.97;5514693;32;34182;-63
2023/07/08 09:23:36;;;;;;;4.65;2.28;;;;;;;33.49;29.90;100920.16;5527997;32;34488;-64
2023/07/08 09:26:41;;;;;;;6.53;2.62;;;;;;;33.69;29.70;100913.44;5527613;32;34834;-62
2023/07/08 09:29:44;;;;;;;2.83;2.20;;;;;;;32.69;31.19;100909.59;5527844;32;33595;-62
2023/07/08 09:32:47;;;;;;;4.72;2.10;;;;;;;31.79;31.62;100909.91;5527581;32;32942;-62
2023/07/08 09:35:50;;;;;;;9.70;2.45;;;;;;;31.18;31.77;100910.63;5527491;32;33699;-61
2023/07/08 09:38:54;;;;;;;5.00;2.33;;;;;;;29.75;33.96;100914.78;5527346;32;33990;-61
2023/07/08 09:41:56;;;;;;;2.72;2.22;;;;;;;29.03;34.54;100910.69;5527425;32;33820;-62
2023/07/08 09:45:12;;;;;;;7.70;2.25;;;;;;;31.45;30.74;100904.56;5527268;32;33649;-62
2023/07/08 09:48:23;;;;;;;5.03;1.92;;;;;;;34.57;27.56;100912.69;5524509;32;34378;-62
2023/07/08 09:51:26;;;;;;;5.25;2.33;;;;;;;32.73;28.63;100908.69;5527604;32;33564;-62
2023/07/08 09:54:30;;;;;;;7.25;2.20;;;;;;;32.21;30.37;100907.09;5544173;32;34335;-61
2023/07/08 09:57:34;;;;;;;4.95;2.20;;;;;;;30.71;31.96;100910.56;5548113;32;33703;-61
2023/07/08 10:00:42;;;;;;;2.80;2.10;;;;;;;30.48;31.51;100912.16;5533538;32;34870;-61
2023/07/08 10:03:47;;;;;;;3.78;2.42;;;;;;;28.88;32.87;100908.81;5539077;32;33582;-61
2023/07/08 10:06:53;;;;;;;4.97;2.60;;;;;;;28.59;33.22;100906.91;5538809;32;33719;-61
2023/07/08 10:10:00;;;;;;;4.70;2.50;;;;;;;29.33;32.94;100901.59;5520242;32;32534;-61
2023/07/08 10:13:17;;;;;;;3.60;2.25;;;;;;;28.76;34.54;100899.25;5543854;32;32466;-61
2023/07/08 10:16:30;;;;;;;5.82;2.70;;;;;;;28.76;34.52;100896.53;5549209;32;35206;-61
2023/07/08 10:19:33;;;;;;;5.37;2.35;;;;;;;28.28;34.71;100890.53;5548678;32;34699;-61
2023/07/08 10:22:46;;;;;;;3.85;2.42;;;;;;;27.81;35.54;100889.88;5548686;32;33603;-61
2023/07/08 10:26:00;;;;;;;3.72;2.58;;;;;;;27.71;36.55;100896.12;5534874;32;33633;-61
2023/07/08 10:29:23;;;;;;;4.78;2.58;;;;;;;28.18;36.20;100890.50;5534880;32;33594;-61
2023/07/08 10:32:43;;;;;;;6.22;2.42;;;;;;;31.00;32.98;100884.78;5548613;32;33758;-62
2023/07/08 10:36:02;;;;;;;5.82;2.25;;;;;;;32.15;30.07;100878.06;5535023;32;33522;-61
2023/07/08 10:39:34;;;;;;;3.60;2.12;;;;;;;34.38;27.79;100885.34;5548790;32;33760;-63
2023/07/08 10:42:53;;;;;;;5.32;2.35;;;;;;;33.99;27.00;100874.19;5517451;32;34342;-63
2023/07/08 10:45:58;;;;;;;4.43;2.50;;;;;;;35.13;25.80;100881.69;5548543;32;33626;-63
2023/07/08 10:49:31;;;;;;;5.72;2.20;;;;;;;36.40;24.71;100878.59;5547065;32;34478;-64
2023/07/08 10:52:46;;;;;;;6.45;2.35;;;;;;;35.52;25.43;100875.34;5534971;32;33155;-64
2023/07/08 10:56:04;;;;;;;7.47;2.30;;;;;;;38.17;22.25;100877.47;5534930;32;33903;-64
2023/07/08 10:59:17;;;;;;;7.07;2.17;;;;;;;36.51;23.77;100868.81;5534781;32;33857;-62
2023/07/08 11:02:53;;;;;;;6.53;2.00;;;;;;;38.41;21.82;100862.88;5522212;32;33391;-63
2023/07/08 11:06:06;;;;;;;3.22;2.22;;;;;;;37.42;22.25;100862.72;5544175;32;34410;-63
2023/07/08 11:09:13;;;;;;;3.53;2.05;;;;;;;36.70;23.09;100859.38;5529344;32;34644;-63
2023/07/08 11:12:22;;;;;;;3.75;2.22;;;;;;;37.49;22.99;100864.16;5538442;32;33822;-64
2023/07/08 11:15:49;;;;;;;8.85;2.33;;;;;;;36.43;23.27;100855.84;5548800;32;33782;-63
2023/07/08 11:19:00;;;;;;;3.85;2.22;;;;;;;36.04;24.35;100856.84;5542604;32;33482;-62
2023/07/08 11:22:11;;;;;;;3.40;2.00;;;;;;;37.01;22.63;100843.25;5548862;32;34090;-63
2023/07/08 11:25:20;;;;;;;6.32;2.10;;;;;;;38.04;21.86;100847.31;5548135;32;33796;-62
2023/07/08 11:28:24;;;;;;;4.95;2.15;;;;;;;39.77;20.63;100844.75;5548394;32;33931;-63
2023/07/08 11:31:33;;;;;;;3.37;2.08;;;;;;;41.26;18.99;100851.47;5534167;32;33661;-63
2023/07/08 11:34:39;;;;;;;3.70;2.00;;;;;;;40.54;19.26;100847.25;5546512;32;33753;-63
2023/07/08 11:37:43;;;;;;;3.03;2.33;;;;;;;38.86;21.10;100848.19;5548573;32;34437;-63
2023/07/08 11:41:02;;;;;;;7.50;2.25;;;;;;;39.19;20.12;100843.34;5534809;32;33884;-64
2023/07/08 11:44:06;;;;;;;6.55;1.90;;;;;;;39.04;20.52;100832.94;5547597;32;33603;-63
2023/07/08 11:47:19;;;;;;;6.43;2.08;;;;;;;38.84;21.46;100829.09;5534478;32;34061;-63
2023/07/08 11:50:41;;;;;;;2.72;2.03;;;;;;;36.85;22.72;100809.81;5547880;32;34129;-63
2023/07/08 11:53:58;;;;;;;6.97;2.30;;;;;;;39.57;20.27;100817.13;5531946;32;32714;-63
2023/07/08 11:57:08;;;;;;;3.22;1.87;;;;;;;41.87;18.33;100815.44;5533611;32;34785;-63
2023/07/08 12:00:17;;;;;;;2.83;2.35;;;;;;;42.98;17.86;100815.38;5546881;32;33422;-63
2023/07/08 12:03:22;;;;;;;4.25;2.15;;;;;;;41.36;18.24;100809.13;5534059;32;34428;-64
2023/07/08 12:06:28;;;;;;;3.92;2.03;;;;;;;37.81;20.87;100806.06;5548094;32;34445;-63
2023/07/08 12:09:38;;;;;;;4.35;2.45;;;;;;;40.42;19.08;100803.69;5534147;32;34712;-64
2023/07/08 12:12:44;;;;;;;4.65;2.00;;;;;;;41.32;18.01;100801.88;5540713;32;34737;-64
2023/07/08 12:15:46;;;;;;;3.92;2.00;;;;;;;40.56;19.20;100795.69;5527718;32;33853;-64
2023/07/08 12:18:49;;;;;;;3.20;2.25;;;;;;;39.09;19.64;100800.22;5528836;32;33905;-63
2023/07/08 12:21:52;;;;;;;3.65;2.50;;;;;;;41.40;18.02;100796.06;5529425;32;33961;-63
2023/07/08 12:24:58;;;;;;;2.60;1.90;;;;;;;41.29;18.64;100794.25;5515114;32;34038;-64
2023/07/08 12:28:01;;;;;;;2.15;1.95;;;;;;;39.93;19.15;100797.56;5528587;32;33405;-63
2023/07/08 12:31:23;;;;;;;2.40;2.10;;;;;;;40.16;18.96;100784.69;5514813;32;33892;-64
2023/07/08 12:34:27;;;;;;;4.10;2.00;;;;;;;39.74;19.00;100787.09;5528273;32;33812;-63
2023/07/08 12:37:31;;;;;;;3.12;2.17;;;;;;;39.18;19.92;100777.06;5514497;32;33981;-63
2023/07/08 12:40:34;;;;;;;3.90;2.10;;;;;;;39.92;19.04;100782.87;5528488;32;33835;-63
2023/07/08 12:43:37;;;;;;;2.30;1.95;;;;;;;38.32;20.24;100775.44;5528388;32;33971;-63
2023/07/08 12:46:40;;;;;;;2.35;1.90;;;;;;;40.51;18.56;100776.50;5528374;32;33742;-63
2023/07/08 12:49:43;;;;;;;2.53;1.92;;;;;;;42.58;17.26;100783.25;5514647;32;34523;-64
2023/07/08 12:52:47;;;;;;;5.55;2.10;;;;;;;43.14;16.43;100777.75;5521396;32;33934;-63
2023/07/08 12:55:54;;;;;;;5.30;2.12;;;;;;;42.37;17.60;100772.53;5547844;32;33804;-63
2023/07/08 12:58:59;;;;;;;4.13;2.03;;;;;;;40.86;18.17;100765.44;5547635;32;33791;-63
2023/07/08 13:02:02;;;;;;;2.78;2.28;;;;;;;43.37;16.22;100765.69;5547533;32;33955;-64
2023/07/08 13:05:06;;;;;;;3.25;1.98;;;;;;;42.28;17.38;100765.59;5547488;32;33929;-64
2023/07/08 13:08:14;;;;;;;3.80;2.20;;;;;;;43.55;16.73;100763.94;5547780;32;33854;-63
2023/07/08 13:11:21;;;;;;;2.90;2.22;;;;;;;42.38;16.81;100759.41;5547459;32;33804;-62
2023/07/08 13:14:25;;;;;;;8.70;2.20;;;;;;;40.98;18.43;100756.94;5545480;32;34127;-62
2023/07/08 13:17:29;;;;;;;5.97;2.15;;;;;;;43.52;16.15;100767.50;5537216;32;33904;-62
2023/07/08 13:20:35;;;;;;;4.60;2.10;;;;;;;40.94;18.47;100750.50;5527941;32;34577;-62
2023/07/08 13:23:38;;;;;;;4.90;2.30;;;;;;;43.56;16.44;100755.19;5528275;32;33816;-63
2023/07/08 13:26:48;;;;;;;5.22;2.10;;;;;;;44.92;14.96;100755.22;5514586;32;34392;-62
2023/07/08 13:29:52;;;;;;;3.10;2.10;;;;;;;41.58;17.29;100740.78;5528222;32;35025;-62
2023/07/08 13:32:59;;;;;;;5.43;2.00;;;;;;;42.40;16.52;100752.28;5527822;32;34260;-62
2023/07/08 13:36:04;;;;;;;4.43;2.20;;;;;;;45.28;14.92;100757.00;5527920;32;33516;-63
2023/07/08 13:39:14;;;;;;;3.97;2.08;;;;;;;43.70;16.35;100758.13;5527887;32;34470;-62
2023/07/08 13:42:17;;;;;;;6.10;2.30;;;;;;;44.17;15.52;100759.41;5528077;32;34287;-63
2023/07/08 13:45:31;;;;;;;3.28;2.20;;;;;;;41.98;16.79;100749.50;5513931;32;32980;-63
2023/07/08 13:48:43;;;;;;;5.35;2.17;;;;;;;44.36;15.22;100753.59;5527758;32;33981;-63
2023/07/08 13:51:47;;;;;;;5.55;2.10;;;;;;;43.70;15.79;100749.75;5514211;32;33859;-63
2023/07/08 13:54:58;;;;;;;5.57;2.17;;;;;;;41.58;17.22;100738.81;5527638;32;33399;-63
2023/07/08 13:58:01;;;;;;;8.07;2.22;;;;;;;42.51;16.56;100755.22;5513929;32;34303;-63
2023/07/08 14:01:08;;;;;;;4.85;2.12;;;;;;;43.64;16.06;100750.44;5513611;32;34825;-63
2023/07/08 14:04:15;;;;;;;7.35;1.87;;;;;;;43.45;15.94;100756.19;5513633;32;33497;-63
2023/07/08 14:07:21;;;;;;;4.93;2.17;;;;;;;41.87;17.00;100734.59;5527174;32;34320;-62
2023/07/08 14:10:25;;;;;;;3.72;2.30;;;;;;;43.40;16.06;100732.19;5527377;32;34478;-62
2023/07/08 14:13:28;;;;;;;7.53;1.80;;;;;;;44.93;14.35;100740.03;5527073;32;34283;-62
2023/07/08 14:16:35;;;;;;;4.82;2.20;;;;;;;42.60;16.09;100735.44;5526886;32;34431;-63
2023/07/08 14:19:38;;;;;;;3.87;2.03;;;;;;;43.24;15.44;100734.38;5526950;32;33580;-63
2023/07/08 14:22:41;;;;;;;3.10;2.30;;;;;;;40.89;17.13;100728.53;5527013;32;33592;-62